Time;durP1;ratioP1;P1;durP2;ratioP2;P2;SDS_P1;SDS_P2;PMS_P1;PMS_P2;Temp;Humidity;BMP_temperature;BMP_pressure;BME280_temperature;BME280_humidity;BME280_pressure;Samples;Min_cycle;Max_cycle;Signal;HPM_P1;HPM_P2
2021/07/15 00:01:37;;;;;;;3.78;2.22;;;;;;;19.52;73.02;100217.28;4902572;28;117460;-69
2021/07/15 00:04:03;;;;;;;2.38;1.98;;;;;;;19.48;73.38;100230.81;4902515;28;112896;-69
2021/07/15 00:06:29;;;;;;;2.72;2.10;;;;;;;19.48;73.02;100235.47;4876004;28;98760;-68
2021/07/15 00:08:56;;;;;;;2.90;2.05;;;;;;;19.55;72.98;100227.56;4890035;28;127377;-64
2021/07/15 00:11:25;;;;;;;2.20;2.00;;;;;;;19.38;73.11;100242.94;4903547;28;97889;-68
2021/07/15 00:13:52;;;;;;;2.75;2.17;;;;;;;19.43;72.76;100238.41;4903478;28;98595;-69
2021/07/15 00:16:18;;;;;;;2.53;1.90;;;;;;;19.45;72.07;100233.41;4902280;28;117560;-64
2021/07/15 00:18:46;;;;;;;2.25;2.05;;;;;;;19.40;71.74;100231.69;4901319;28;126659;-64
2021/07/15 00:21:14;;;;;;;3.90;1.90;;;;;;;19.43;71.98;100233.75;4885787;28;97787;-64
2021/07/15 00:23:40;;;;;;;1.73;1.60;;;;;;;19.45;71.09;100236.16;4902518;28;103242;-64
2021/07/15 00:26:07;;;;;;;2.88;1.50;;;;;;;19.42;71.32;100237.63;4903613;28;98538;-64
2021/07/15 00:28:38;;;;;;;2.30;1.80;;;;;;;19.33;71.15;100240.41;4902984;28;98700;-68
2021/07/15 00:31:04;;;;;;;2.92;1.80;;;;;;;19.38;70.68;100242.16;4902729;28;103805;-69
2021/07/15 00:33:30;;;;;;;4.13;1.75;;;;;;;19.40;70.30;100242.59;4902386;28;97817;-64
2021/07/15 00:35:57;;;;;;;2.75;1.80;;;;;;;19.41;72.04;100241.47;4902247;28;103535;-69
2021/07/15 00:38:24;;;;;;;2.88;2.10;;;;;;;19.42;70.71;100229.44;4902535;28;97963;-69
2021/07/15 00:40:50;;;;;;;2.80;1.75;;;;;;;19.44;70.76;100227.16;4884749;28;98237;-64
2021/07/15 00:43:16;;;;;;;4.03;1.95;;;;;;;19.49;70.89;100226.16;4885081;28;98347;-69
2021/07/15 00:45:43;;;;;;;2.45;2.00;;;;;;;19.42;70.44;100232.16;4883881;28;126138;-64
2021/07/15 00:48:09;;;;;;;2.53;1.98;;;;;;;19.39;70.46;100235.56;4890961;28;99591;-64
2021/07/15 00:50:35;;;;;;;2.20;1.92;;;;;;;19.43;70.42;100238.41;4901441;28;98076;-69
2021/07/15 00:53:02;;;;;;;3.85;2.20;;;;;;;19.41;70.37;100229.75;4888513;28;128449;-70
2021/07/15 00:55:37;;;;;;;2.53;2.28;;;;;;;19.31;70.34;100220.81;4880782;28;111258;-64
2021/07/15 00:58:04;;;;;;;4.45;2.13;;;;;;;19.32;70.54;100213.41;4886273;28;98256;-69
2021/07/15 01:00:30;;;;;;;2.15;2.00;;;;;;;19.33;70.28;100210.34;4884579;28;104471;-64
2021/07/15 01:02:57;;;;;;;2.47;2.00;;;;;;;19.31;70.81;100204.41;4902654;28;98241;-69
2021/07/15 01:05:26;;;;;;;2.30;2.10;;;;;;;19.27;71.16;100191.75;4898188;28;99960;-64
2021/07/15 01:07:52;;;;;;;3.38;2.00;;;;;;;19.26;71.49;100192.91;4900703;28;97782;-65
2021/07/15 01:10:20;;;;;;;3.78;2.00;;;;;;;19.21;71.20;100196.59;4902779;28;97930;-69
2021/07/15 01:13:29;;;;;;;2.83;2.20;;;;;;;19.16;70.98;100196.00;4899558;28;97777;-69
2021/07/15 01:16:17;;;;;;;2.28;2.03;;;;;;;19.16;70.57;100205.00;4883329;28;98998;-64
2021/07/15 01:18:51;;;;;;;3.33;2.17;;;;;;;19.11;70.14;100200.53;4871441;28;114779;-64
2021/07/15 01:21:31;;;;;;;5.03;2.60;;;;;;;19.11;69.67;100191.53;4902904;28;97949;-69
2021/07/15 01:24:24;;;;;;;2.92;2.03;;;;;;;19.12;70.14;100198.59;4900495;28;98850;-64
2021/07/15 01:27:48;;;;;;;2.60;2.40;;;;;;;19.11;69.43;100202.47;4900890;28;98523;-64
2021/07/15 01:30:25;;;;;;;4.45;2.30;;;;;;;19.07;69.10;100204.25;4887970;28;98131;-64
2021/07/15 01:33:16;;;;;;;2.38;2.00;;;;;;;19.12;69.33;100209.53;4899248;28;102013;-69
2021/07/15 01:36:07;;;;;;;3.20;2.47;;;;;;;19.18;69.92;100204.66;4898285;28;98396;-69
2021/07/15 01:38:40;;;;;;;3.05;2.25;;;;;;;19.11;70.17;100210.66;4893106;28;103502;-72
2021/07/15 01:41:20;;;;;;;3.60;2.40;;;;;;;19.11;70.13;100206.00;4882770;28;112761;-64
2021/07/15 01:43:48;;;;;;;3.63;2.25;;;;;;;19.15;70.38;100200.66;4900584;28;106803;-64
2021/07/15 01:46:14;;;;;;;2.50;2.00;;;;;;;19.11;69.95;100205.19;4899814;28;117333;-65
2021/07/15 01:48:41;;;;;;;2.58;2.30;;;;;;;19.16;69.55;100210.47;4881646;28;98705;-65
2021/07/15 01:51:08;;;;;;;3.53;2.20;;;;;;;19.10;69.29;100214.53;4884344;28;113339;-64
2021/07/15 01:53:34;;;;;;;2.60;2.40;;;;;;;19.15;69.32;100217.06;4899533;28;98097;-64
2021/07/15 01:56:00;;;;;;;2.72;2.30;;;;;;;19.09;69.08;100221.91;4849361;28;128108;-69
2021/07/15 01:58:28;;;;;;;3.15;2.40;;;;;;;19.15;68.98;100219.78;4867315;28;126987;-69
2021/07/15 02:00:54;;;;;;;3.20;2.25;;;;;;;19.13;69.85;100225.56;4921479;28;98126;-69
2021/07/15 02:03:20;;;;;;;4.68;2.50;;;;;;;19.05;69.34;100226.41;4867930;28;118501;-67
2021/07/15 02:05:46;;;;;;;2.80;2.15;;;;;;;19.08;69.31;100233.16;4866360;28;128573;-69
2021/07/15 02:08:13;;;;;;;2.63;2.42;;;;;;;19.05;69.04;100233.81;4884119;28;98165;-65
2021/07/15 02:10:39;;;;;;;2.15;2.00;;;;;;;19.10;68.96;100234.44;4870800;28;109325;-69
2021/07/15 02:13:07;;;;;;;3.47;2.40;;;;;;;19.10;68.96;100231.72;4892924;28;104972;-69
2021/07/15 02:15:33;;;;;;;3.58;2.30;;;;;;;19.18;69.42;100226.50;4904472;28;98950;-69
2021/07/15 02:17:59;;;;;;;2.35;2.15;;;;;;;19.13;69.29;100222.84;4863912;28;109515;-64
2021/07/15 02:20:26;;;;;;;4.10;2.80;;;;;;;19.17;69.11;100227.66;4894351;28;125712;-69
2021/07/15 02:22:52;;;;;;;3.50;2.30;;;;;;;19.12;69.25;100223.19;4865230;28;99525;-69
2021/07/15 02:25:18;;;;;;;2.70;2.42;;;;;;;18.97;67.97;100221.00;4898417;28;98941;-69
2021/07/15 02:27:45;;;;;;;3.90;2.33;;;;;;;19.06;68.87;100219.03;4900220;28;98893;-64
2021/07/15 02:30:15;;;;;;;5.47;2.33;;;;;;;18.98;68.70;100211.69;4873517;28;100631;-64
2021/07/15 02:32:46;;;;;;;3.35;2.60;;;;;;;19.01;69.37;100214.56;4895567;28;97953;-69
2021/07/15 02:35:15;;;;;;;2.72;2.20;;;;;;;18.95;68.71;100220.56;4929888;28;107246;-69
2021/07/15 02:37:42;;;;;;;2.95;2.25;;;;;;;18.91;68.48;100225.88;4901163;28;119678;-65
2021/07/15 02:40:14;;;;;;;4.80;2.28;;;;;;;18.92;68.60;100232.13;4879455;28;98023;-65
2021/07/15 02:42:40;;;;;;;2.70;2.40;;;;;;;18.87;68.73;100227.66;4899555;28;98794;-69
2021/07/15 02:45:08;;;;;;;3.70;2.38;;;;;;;18.91;69.04;100230.53;4904912;28;99068;-69
2021/07/15 02:47:34;;;;;;;2.67;2.40;;;;;;;18.79;69.01;100240.22;4902395;28;99245;-69
2021/07/15 02:50:00;;;;;;;3.42;2.50;;;;;;;18.80;69.36;100233.63;4902781;28;97912;-64
2021/07/15 02:52:26;;;;;;;2.90;2.40;;;;;;;18.84;68.96;100237.28;4918261;28;117497;-65
2021/07/15 02:54:52;;;;;;;3.22;2.30;;;;;;;18.78;69.02;100232.34;4903417;28;127520;-64
2021/07/15 02:57:31;;;;;;;2.47;2.20;;;;;;;18.74;69.30;100225.94;4909874;28;104792;-64
2021/07/15 03:00:12;;;;;;;3.70;2.47;;;;;;;18.73;69.51;100221.59;4902752;28;98662;-65
2021/07/15 03:03:15;;;;;;;3.88;2.30;;;;;;;18.64;69.55;100227.06;4886492;28;109618;-69
2021/07/15 03:06:11;;;;;;;3.15;2.15;;;;;;;18.74;69.36;100223.19;4883116;28;98479;-69
2021/07/15 03:08:59;;;;;;;2.40;2.20;;;;;;;18.73;69.64;100229.78;4888109;28;114189;-70
2021/07/15 03:11:40;;;;;;;4.47;2.45;;;;;;;18.72;70.04;100229.00;4898737;28;98311;-69
2021/07/15 03:14:06;;;;;;;4.67;2.70;;;;;;;18.76;69.34;100224.47;4887933;28;98106;-65
2021/07/15 03:16:33;;;;;;;2.78;2.03;;;;;;;18.70;68.90;100231.25;4870187;28;98613;-65
2021/07/15 03:18:59;;;;;;;3.17;2.22;;;;;;;18.78;69.45;100232.34;4869807;28;122454;-65
2021/07/15 03:21:25;;;;;;;3.33;2.50;;;;;;;18.79;68.99;100237.47;4885347;28;127916;-65
2021/07/15 03:23:54;;;;;;;3.03;2.40;;;;;;;18.70;69.05;100233.16;4875031;28;97925;-64
2021/07/15 03:26:21;;;;;;;2.90;2.63;;;;;;;18.73;69.44;100230.59;4892441;28;98570;-69
2021/07/15 03:28:47;;;;;;;2.67;2.30;;;;;;;18.78;69.91;100235.06;4886570;28;111009;-65
2021/07/15 03:31:13;;;;;;;3.92;2.35;;;;;;;18.74;69.35;100229.47;4869030;28;127041;-69
2021/07/15 03:33:40;;;;;;;3.58;2.47;;;;;;;18.74;69.10;100220.47;4885504;28;116846;-69
2021/07/15 03:36:10;;;;;;;4.57;2.35;;;;;;;18.74;69.77;100223.19;4901246;28;98116;-69
2021/07/15 03:38:39;;;;;;;2.88;2.30;;;;;;;18.63;69.53;100230.94;4892518;28;98566;-64
2021/07/15 03:41:06;;;;;;;3.28;2.35;;;;;;;18.71;69.23;100237.53;4896136;28;98173;-65
2021/07/15 03:43:33;;;;;;;2.95;2.60;;;;;;;18.58;69.44;100251.00;4886407;28;102103;-70
2021/07/15 03:46:00;;;;;;;3.58;2.30;;;;;;;18.45;69.73;100253.94;4902450;28;117114;-69
2021/07/15 03:48:27;;;;;;;2.70;2.47;;;;;;;18.55;69.81;100265.31;4908410;28;98305;-65
2021/07/15 03:51:04;;;;;;;2.72;2.50;;;;;;;18.60;70.26;100267.06;4904052;28;98141;-69
2021/07/15 03:53:30;;;;;;;2.85;2.33;;;;;;;18.61;69.58;100263.19;4898022;28;98362;-65
2021/07/15 03:55:58;;;;;;;2.63;2.42;;;;;;;18.67;69.95;100264.63;4916650;28;123711;-69
2021/07/15 03:58:24;;;;;;;3.95;2.40;;;;;;;18.70;70.15;100263.16;4883280;28;117648;-70
2021/07/15 04:00:50;;;;;;;3.70;2.50;;;;;;;18.72;70.33;100252.78;4917003;28;98247;-65
2021/07/15 04:03:20;;;;;;;3.42;2.72;;;;;;;18.67;70.08;100266.53;4899374;28;118676;-65
2021/07/15 04:05:46;;;;;;;4.03;2.75;;;;;;;18.72;69.80;100259.03;4897734;28;101820;-69
2021/07/15 04:08:13;;;;;;;3.00;2.67;;;;;;;18.57;70.42;100265.78;4917497;28;128232;-69
2021/07/15 04:10:40;;;;;;;2.83;2.63;;;;;;;18.74;69.67;100259.47;4891068;28;98134;-70
2021/07/15 04:13:06;;;;;;;3.28;2.80;;;;;;;18.73;70.49;100263.34;4884771;28;98601;-71
2021/07/15 04:15:51;;;;;;;4.90;3.30;;;;;;;18.71;70.40;100273.81;4870444;28;109751;-65
2021/07/15 04:18:18;;;;;;;3.55;2.80;;;;;;;18.68;70.10;100270.91;4900195;28;98528;-70
2021/07/15 04:20:44;;;;;;;4.40;3.10;;;;;;;18.49;70.42;100272.06;4881565;28;98011;-65
2021/07/15 04:23:10;;;;;;;3.00;2.50;;;;;;;18.48;69.96;100284.13;4881972;28;107296;-71
2021/07/15 04:25:36;;;;;;;2.35;2.15;;;;;;;18.48;70.14;100284.13;4900642;28;98627;-70
2021/07/15 04:28:03;;;;;;;2.53;2.33;;;;;;;18.50;70.60;100281.84;4905553;28;127980;-65
2021/07/15 04:30:29;;;;;;;2.97;2.38;;;;;;;18.77;70.49;100283.41;4901444;28;97844;-65
2021/07/15 04:33:09;;;;;;;2.63;2.35;;;;;;;18.69;70.29;100289.66;4899064;28;97922;-65
2021/07/15 04:35:36;;;;;;;3.95;2.33;;;;;;;18.82;70.22;100290.63;4898042;28;98633;-70
2021/07/15 04:38:03;;;;;;;5.50;2.70;;;;;;;18.74;71.06;100288.72;4894624;28;100660;-65
2021/07/15 04:40:30;;;;;;;3.10;2.80;;;;;;;18.68;72.01;100290.00;4894533;28;117515;-65
2021/07/15 04:43:08;;;;;;;3.08;2.78;;;;;;;18.89;72.34;100278.06;4898136;28;107374;-70
2021/07/15 04:45:38;;;;;;;3.55;2.80;;;;;;;18.96;72.23;100277.56;4884870;28;98341;-69
2021/07/15 04:48:05;;;;;;;3.92;2.72;;;;;;;19.04;72.74;100286.84;4900263;28;98483;-70
2021/07/15 04:50:35;;;;;;;3.03;2.80;;;;;;;19.01;72.87;100276.56;4899527;28;111650;-70
2021/07/15 04:53:05;;;;;;;3.30;2.88;;;;;;;19.02;71.88;100283.63;4903055;28;98281;-69
2021/07/15 04:55:31;;;;;;;3.65;2.95;;;;;;;19.06;72.05;100287.31;4902445;28;111780;-70
2021/07/15 04:57:58;;;;;;;4.18;2.88;;;;;;;19.18;72.15;100279.25;4917121;28;112828;-65
2021/07/15 05:00:26;;;;;;;3.20;3.00;;;;;;;19.35;71.79;100270.94;4903262;28;97980;-65
2021/07/15 05:03:00;;;;;;;3.85;3.05;;;;;;;19.45;70.17;100277.13;4884797;28;98623;-65
2021/07/15 05:05:26;;;;;;;3.38;2.70;;;;;;;19.49;69.64;100286.28;4900458;28;99636;-65
2021/07/15 05:07:52;;;;;;;3.67;2.88;;;;;;;19.49;70.38;100291.75;4875941;28;112559;-70
2021/07/15 05:10:18;;;;;;;3.10;2.78;;;;;;;19.15;70.38;100296.28;4882229;28;127574;-70
2021/07/15 05:12:44;;;;;;;3.95;2.90;;;;;;;19.13;71.00;100299.31;4897979;28;118004;-65
2021/07/15 05:15:11;;;;;;;4.32;2.80;;;;;;;19.31;71.72;100302.78;4899528;28;124124;-70
2021/07/15 05:17:38;;;;;;;4.13;2.70;;;;;;;19.16;71.38;100305.28;4899302;28;119393;-70
2021/07/15 05:20:06;;;;;;;3.13;2.67;;;;;;;19.19;71.23;100305.41;4874138;28;106624;-65
2021/07/15 05:22:32;;;;;;;3.13;2.80;;;;;;;19.02;72.51;100317.22;4889775;28;97899;-65
2021/07/15 05:24:58;;;;;;;2.78;2.40;;;;;;;19.04;71.52;100316.88;4901304;28;126707;-65
2021/07/15 05:27:24;;;;;;;3.03;2.40;;;;;;;19.03;71.07;100316.09;4901128;28;128146;-65
2021/07/15 05:29:50;;;;;;;3.85;2.33;;;;;;;19.00;71.19;100319.47;4901618;28;124333;-69
2021/07/15 05:32:16;;;;;;;3.30;2.30;;;;;;;19.27;71.66;100306.50;4901559;28;115656;-65
2021/07/15 05:34:42;;;;;;;4.25;2.47;;;;;;;19.37;71.29;100304.22;4899894;28;99827;-70
2021/07/15 05:37:08;;;;;;;2.25;2.05;;;;;;;19.33;69.60;100310.63;4896339;28;119119;-70
2021/07/15 05:39:36;;;;;;;3.10;2.28;;;;;;;19.58;70.00;100306.97;4901967;28;127641;-70
2021/07/15 05:42:02;;;;;;;2.85;2.25;;;;;;;19.61;68.66;100316.44;4894469;28;101147;-65
2021/07/15 05:44:28;;;;;;;2.17;1.98;;;;;;;19.84;69.68;100301.34;4899617;28;111649;-70
2021/07/15 05:46:54;;;;;;;2.08;1.88;;;;;;;20.18;68.49;100295.94;4901463;28;125674;-70
2021/07/15 05:49:20;;;;;;;4.40;2.20;;;;;;;20.29;66.15;100289.69;4900010;28;127167;-65
2021/07/15 05:51:47;;;;;;;3.38;2.33;;;;;;;20.71;65.55;100288.81;4901652;28;115226;-70
2021/07/15 05:54:14;;;;;;;2.33;2.13;;;;;;;21.22;64.47;100286.56;4883584;28;98082;-65
2021/07/15 05:56:40;;;;;;;2.78;2.05;;;;;;;21.50;62.69;100284.75;4883027;28;128550;-65
2021/07/15 05:59:06;;;;;;;2.55;1.80;;;;;;;22.06;61.09;100290.31;4897545;28;127396;-70
2021/07/15 06:01:32;;;;;;;2.53;1.90;;;;;;;24.77;53.31;100274.97;4890646;28;117718;-66
2021/07/15 06:03:58;;;;;;;2.42;1.60;;;;;;;25.71;49.02;100276.81;4931365;28;125553;-71
2021/07/15 06:06:24;;;;;;;2.38;1.60;;;;;;;26.18;48.26;100285.72;4882080;28;128064;-66
2021/07/15 06:08:52;;;;;;;2.65;1.70;;;;;;;26.83;44.99;100287.94;4882746;28;126622;-71
2021/07/15 06:11:18;;;;;;;2.28;1.60;;;;;;;25.93;48.43;100290.91;4902410;28;98218;-72
2021/07/15 06:13:44;;;;;;;3.22;1.40;;;;;;;25.77;48.50;100290.28;4883182;28;127830;-71
2021/07/15 06:16:10;;;;;;;2.05;1.55;;;;;;;26.88;45.74;100292.31;4902722;28;103258;-70
2021/07/15 06:18:36;;;;;;;2.50;1.52;;;;;;;27.08;45.44;100295.69;4904867;28;126384;-71
2021/07/15 06:21:04;;;;;;;3.42;1.75;;;;;;;27.78;43.81;100296.56;4903754;28;117726;-66
2021/07/15 06:23:32;;;;;;;3.08;1.52;;;;;;;29.28;40.83;100285.81;4934303;28;98850;-66
2021/07/15 06:25:59;;;;;;;2.45;1.67;;;;;;;29.78;39.95;100302.34;4905471;28;98493;-70
2021/07/15 06:28:26;;;;;;;2.83;1.38;;;;;;;29.92;40.28;100298.72;4877586;28;98066;-71
2021/07/15 06:30:52;;;;;;;1.75;1.30;;;;;;;30.63;38.36;100303.94;4886931;28;105096;-66
2021/07/15 06:33:18;;;;;;;1.88;1.33;;;;;;;30.08;38.97;100304.59;4905275;28;98670;-70
2021/07/15 06:35:47;;;;;;;1.60;1.50;;;;;;;30.90;37.40;100295.03;4903524;28;129213;-66
2021/07/15 06:38:13;;;;;;;2.15;1.70;;;;;;;30.40;37.73;100296.13;4904296;28;98052;-66
2021/07/15 06:40:39;;;;;;;2.13;1.25;;;;;;;30.40;38.40;100289.78;4903984;28;117613;-71
2021/07/15 06:43:05;;;;;;;2.58;1.42;;;;;;;30.32;38.80;100286.25;4903947;28;128068;-71
2021/07/15 06:45:31;;;;;;;3.10;1.20;;;;;;;30.16;39.46;100283.97;4887146;28;99286;-66
2021/07/15 06:47:57;;;;;;;1.35;1.20;;;;;;;30.98;37.57;100268.72;4901360;28;127679;-70
2021/07/15 06:50:24;;;;;;;1.40;0.98;;;;;;;31.08;37.23;100281.72;4903910;28;108939;-66
2021/07/15 06:52:50;;;;;;;3.28;1.10;;;;;;;30.82;37.27;100285.94;4904439;28;98020;-71
2021/07/15 06:55:16;;;;;;;1.52;1.13;;;;;;;29.84;38.40;100272.97;4884854;28;128136;-70
2021/07/15 06:57:42;;;;;;;1.67;1.00;;;;;;;29.50;38.19;100275.44;4886876;28;98566;-66
2021/07/15 07:00:13;;;;;;;1.23;1.08;;;;;;;27.74;42.83;100293.75;4904251;28;98184;-66
2021/07/15 07:02:43;;;;;;;2.08;1.30;;;;;;;27.22;44.98;100281.97;4904599;28;99528;-65
2021/07/15 07:05:10;;;;;;;1.98;1.10;;;;;;;25.86;48.83;100288.88;4904090;28;98603;-66
2021/07/15 07:07:37;;;;;;;3.35;1.35;;;;;;;25.30;49.51;100281.34;4885889;28;120124;-70
2021/07/15 07:10:07;;;;;;;2.65;1.67;;;;;;;26.49;48.25;100289.19;4888094;28;111480;-66
2021/07/15 07:12:33;;;;;;;2.88;1.73;;;;;;;26.17;48.55;100284.91;4912476;28;100833;-66
2021/07/15 07:14:59;;;;;;;2.55;2.10;;;;;;;25.65;49.55;100286.59;4903050;28;128323;-70
2021/07/15 07:17:26;;;;;;;2.25;1.90;;;;;;;26.27;48.97;100288.16;4902938;28;127918;-70
2021/07/15 07:19:52;;;;;;;1.52;1.40;;;;;;;26.39;48.13;100290.66;4903157;28;119145;-66
2021/07/15 07:22:18;;;;;;;2.13;1.30;;;;;;;26.74;46.40;100290.25;4885688;28;127024;-66
2021/07/15 07:24:44;;;;;;;1.20;0.73;;;;;;;28.31;42.08;100287.66;4901083;28;120514;-70
2021/07/15 07:27:10;;;;;;;2.85;1.05;;;;;;;29.30;39.64;100289.75;4902896;28;102086;-66
2021/07/15 07:29:36;;;;;;;1.10;0.60;;;;;;;30.01;39.96;100296.31;4884492;28;118109;-70
2021/07/15 07:32:02;;;;;;;1.05;0.80;;;;;;;29.23;39.68;100302.81;4901841;28;125500;-66
2021/07/15 07:34:28;;;;;;;1.15;0.80;;;;;;;27.94;42.81;100310.06;4902669;28;98794;-66
2021/07/15 07:36:54;;;;;;;1.17;1.00;;;;;;;27.86;42.25;100298.16;4896064;28;98004;-66
2021/07/15 07:39:20;;;;;;;1.13;1.02;;;;;;;29.74;38.33;100299.56;4904372;28;97769;-70
2021/07/15 07:41:46;;;;;;;0.82;0.60;;;;;;;30.54;36.97;100307.16;4900168;28;127341;-70
2021/07/15 07:44:12;;;;;;;1.50;0.50;;;;;;;31.00;37.12;100308.03;4882657;28;98019;-70
2021/07/15 07:46:39;;;;;;;0.60;0.30;;;;;;;30.05;37.84;100308.19;4884452;28;99743;-70
2021/07/15 07:49:05;;;;;;;1.08;0.38;;;;;;;30.55;36.70;100305.19;4885204;28;99393;-66
2021/07/15 07:51:31;;;;;;;0.90;0.60;;;;;;;31.37;35.02;100303.78;4884255;28;127949;-66
2021/07/15 07:53:57;;;;;;;2.97;0.65;;;;;;;31.25;36.86;100316.97;4884351;28;98651;-66
2021/07/15 07:56:23;;;;;;;0.88;0.45;;;;;;;31.61;35.31;100304.72;4899462;28;98037;-67
2021/07/15 07:58:49;;;;;;;2.55;0.60;;;;;;;32.40;35.15;100302.56;4901275;28;118574;-67
2021/07/15 08:01:16;;;;;;;1.73;0.63;;;;;;;33.15;32.67;100308.97;4902764;28;128548;-70
2021/07/15 08:03:42;;;;;;;2.95;0.50;;;;;;;32.12;34.29;100300.91;4903972;28;98389;-71
2021/07/15 08:06:08;;;;;;;1.05;0.60;;;;;;;29.24;37.92;100296.09;4901907;28;128454;-70
2021/07/15 08:08:38;;;;;;;3.03;0.82;;;;;;;29.76;37.25;100294.41;4904201;28;98110;-69
2021/07/15 08:11:04;;;;;;;1.08;0.63;;;;;;;31.60;34.38;100298.34;4903098;28;98333;-70
2021/07/15 08:13:30;;;;;;;1.27;0.85;;;;;;;31.53;34.78;100296.44;4903123;28;111711;-70
2021/07/15 08:15:56;;;;;;;1.38;0.75;;;;;;;32.82;33.11;100297.53;4901497;28;127233;-66
2021/07/15 08:18:23;;;;;;;1.88;0.50;;;;;;;31.10;36.59;100289.69;4903650;28;97816;-66
2021/07/15 08:20:49;;;;;;;1.40;0.60;;;;;;;30.38;38.53;100283.81;4902450;28;98658;-69
2021/07/15 08:23:15;;;;;;;2.78;0.60;;;;;;;31.65;35.63;100295.09;4931378;28;98538;-66
2021/07/15 08:25:41;;;;;;;1.15;0.50;;;;;;;34.06;30.67;100282.50;4884948;28;115412;-65
2021/07/15 08:28:08;;;;;;;0.98;0.55;;;;;;;34.85;29.91;100277.88;4902800;28;106370;-70
2021/07/15 08:30:34;;;;;;;1.27;0.50;;;;;;;35.43;28.07;100278.00;4902101;28;128679;-70
2021/07/15 08:33:00;;;;;;;1.80;0.50;;;;;;;35.76;28.03;100287.06;4916978;28;114933;-66
2021/07/15 08:35:27;;;;;;;1.65;0.60;;;;;;;36.30;27.05;100282.69;4901743;28;126336;-70
2021/07/15 08:37:55;;;;;;;1.63;0.38;;;;;;;33.41;31.62;100273.81;4903417;28;97941;-66
2021/07/15 08:40:21;;;;;;;1.00;0.40;;;;;;;35.26;28.78;100270.88;4901833;28;98665;-70
2021/07/15 08:42:47;;;;;;;1.50;0.50;;;;;;;36.21;28.00;100277.75;4901465;28;98248;-66
2021/07/15 08:45:13;;;;;;;2.42;0.52;;;;;;;35.48;28.30;100276.66;4900867;28;127914;-70
2021/07/15 08:47:41;;;;;;;1.95;0.40;;;;;;;34.80;28.58;100286.81;4903533;28;97967;-70
2021/07/15 08:50:09;;;;;;;1.40;0.40;;;;;;;32.89;32.30;100285.44;4903041;28;99327;-70
2021/07/15 08:52:36;;;;;;;0.80;0.50;;;;;;;31.37;34.95;100284.28;4899340;28;98995;-69
2021/07/15 08:57:36;;;;;;;3.13;0.50;;;;;;;30.76;35.39;100290.34;4900349;28;98023;-66
2021/07/15 09:00:08;;;;;;;4.97;0.60;;;;;;;30.97;35.77;100286.59;4902413;28;109395;-66
2021/07/15 09:02:34;;;;;;;1.45;0.63;;;;;;;30.55;35.92;100292.06;4901716;28;119147;-66
2021/07/15 09:05:00;;;;;;;0.90;0.60;;;;;;;30.00;36.95;100286.41;4916428;28;128110;-69
2021/07/15 09:07:26;;;;;;;1.17;0.55;;;;;;;29.66;39.39;100286.13;4902484;28;98041;-69
2021/07/15 09:09:53;;;;;;;1.45;0.70;;;;;;;29.46;38.14;100296.84;4883310;28;127743;-66
2021/07/15 09:12:19;;;;;;;2.25;0.88;;;;;;;28.94;39.35;100302.81;4896853;28;98850;-69
2021/07/15 09:14:50;;;;;;;0.82;0.63;;;;;;;28.36;41.62;100301.13;4901857;28;127379;-69
2021/07/15 09:17:25;;;;;;;1.67;0.90;;;;;;;28.18;40.98;100301.09;4902092;28;106097;-65
2021/07/15 09:19:51;;;;;;;2.78;0.90;;;;;;;28.50;41.69;100295.66;4901309;28;98452;-65
2021/07/15 09:22:17;;;;;;;1.58;0.90;;;;;;;30.04;37.84;100290.72;4897092;28;128162;-65
2021/07/15 09:24:45;;;;;;;1.33;0.77;;;;;;;29.44;38.74;100300.03;4901546;28;127308;-70
2021/07/15 09:27:23;;;;;;;1.67;0.90;;;;;;;30.39;38.42;100299.31;4902841;28;97948;-71
2021/07/15 09:30:11;;;;;;;1.73;1.15;;;;;;;31.22;36.07;100298.31;4902618;28;98662;-66
2021/07/15 09:32:56;;;;;;;1.67;1.00;;;;;;;31.46;36.25;100304.84;4902414;28;98357;-70
2021/07/15 09:35:33;;;;;;;1.50;1.15;;;;;;;31.40;35.74;100300.13;4884636;28;98392;-70
2021/07/15 09:38:14;;;;;;;1.40;1.30;;;;;;;31.80;35.00;100306.88;4900388;28;98158;-70
2021/07/15 09:40:59;;;;;;;2.15;1.20;;;;;;;31.32;35.36;100309.75;4899964;28;98860;-70
2021/07/15 09:43:31;;;;;;;1.80;0.90;;;;;;;31.12;36.55;100307.53;4900853;28;97906;-66
2021/07/15 09:46:00;;;;;;;1.63;1.20;;;;;;;29.13;38.33;100306.44;4884088;28;97973;-70
2021/07/15 09:48:30;;;;;;;1.42;1.08;;;;;;;30.25;37.24;100306.53;4901409;28;98313;-66
2021/07/15 09:50:59;;;;;;;1.50;1.40;;;;;;;28.76;39.25;100315.88;4903383;28;98351;-70
2021/07/15 09:53:29;;;;;;;1.20;1.10;;;;;;;28.21;41.95;100313.34;4905529;28;98681;-66
2021/07/15 09:56:13;;;;;;;1.53;1.10;;;;;;;27.64;42.69;100320.19;4904281;28;107667;-65
2021/07/15 09:58:40;;;;;;;1.95;1.50;;;;;;;28.52;42.68;100317.41;4905291;28;97924;-69
2021/07/15 10:01:20;;;;;;;1.60;1.40;;;;;;;29.25;38.96;100309.56;4905382;28;98360;-70
2021/07/15 10:03:56;;;;;;;1.95;1.60;;;;;;;30.01;38.81;100312.97;4903789;28;100353;-65
2021/07/15 10:06:22;;;;;;;2.80;1.90;;;;;;;29.80;40.76;100331.31;4903108;28;98701;-66
2021/07/15 10:08:53;;;;;;;2.85;2.10;;;;;;;31.87;36.29;100325.50;4904784;28;97988;-70
2021/07/15 10:11:26;;;;;;;1.98;1.25;;;;;;;33.30;33.81;100334.63;4903332;28;102506;-70
2021/07/15 10:14:04;;;;;;;1.80;1.30;;;;;;;34.61;32.03;100334.00;4904435;28;98776;-71
2021/07/15 10:16:32;;;;;;;2.05;0.90;;;;;;;33.36;33.46;100332.91;4892107;28;98045;-70
2021/07/15 10:18:58;;;;;;;1.83;1.10;;;;;;;34.71;32.17;100331.41;4905292;28;98061;-70
2021/07/15 10:21:30;;;;;;;1.35;1.13;;;;;;;36.23;29.99;100327.78;4904345;28;126569;-66
2021/07/15 10:23:57;;;;;;;1.45;0.90;;;;;;;34.36;32.86;100322.59;4902765;28;98372;-70
2021/07/15 10:26:23;;;;;;;1.58;1.20;;;;;;;33.10;33.23;100326.22;4905002;28;97940;-65
2021/07/15 10:28:52;;;;;;;2.03;1.23;;;;;;;31.18;36.15;100325.38;4904989;28;98022;-65
2021/07/15 10:31:20;;;;;;;2.28;1.50;;;;;;;30.57;36.22;100319.44;4904597;28;98926;-65
2021/07/15 10:33:46;;;;;;;1.77;1.30;;;;;;;32.12;35.74;100316.84;4889427;28;111539;-66
2021/07/15 10:36:13;;;;;;;1.73;1.10;;;;;;;33.68;32.03;100321.97;4866560;28;127608;-65
2021/07/15 10:38:43;;;;;;;1.30;1.20;;;;;;;33.05;33.44;100326.69;4896376;28;117640;-66
2021/07/15 10:41:09;;;;;;;2.10;1.52;;;;;;;30.90;36.14;100318.06;4904125;28;110224;-65
2021/07/15 10:43:36;;;;;;;2.40;1.67;;;;;;;29.24;38.79;100315.50;4904000;28;121987;-70
2021/07/15 10:46:04;;;;;;;1.80;1.40;;;;;;;29.60;40.98;100307.97;4886981;28;98584;-70
2021/07/15 10:48:32;;;;;;;1.58;1.35;;;;;;;29.66;39.74;100311.91;4901147;28;98330;-65
2021/07/15 10:51:00;;;;;;;1.60;1.50;;;;;;;29.82;39.78;100308.66;4892036;28;98984;-70
2021/07/15 10:53:27;;;;;;;1.95;1.10;;;;;;;30.40;38.39;100318.38;4904557;28;99094;-70
2021/07/15 10:55:53;;;;;;;1.40;1.25;;;;;;;29.83;39.03;100319.41;4902738;28;107327;-65
2021/07/15 10:58:43;;;;;;;1.13;1.02;;;;;;;28.69;41.25;100324.19;4929043;28;99372;-70
2021/07/15 11:01:12;;;;;;;1.23;1.13;;;;;;;28.62;40.86;100317.44;4903860;28;98458;-70
2021/07/15 11:03:38;;;;;;;1.60;1.20;;;;;;;31.17;37.26;100309.88;4904071;28;98101;-70
2021/07/15 11:06:04;;;;;;;2.08;1.20;;;;;;;31.12;38.03;100318.66;4902857;28;97726;-66
2021/07/15 11:08:48;;;;;;;2.35;1.33;;;;;;;31.69;37.32;100312.56;4902928;28;98226;-70
2021/07/15 11:11:14;;;;;;;1.50;1.40;;;;;;;31.90;35.67;100319.13;4904059;28;98222;-66
2021/07/15 11:13:42;;;;;;;3.13;1.50;;;;;;;31.93;34.51;100316.28;4885817;28;98679;-71
2021/07/15 11:16:08;;;;;;;1.45;1.20;;;;;;;33.03;33.44;100324.31;4904495;28;99380;-66
2021/07/15 11:18:42;;;;;;;1.70;1.30;;;;;;;33.93;31.69;100317.88;4903266;28;115980;-66
2021/07/15 11:21:30;;;;;;;1.70;0.90;;;;;;;34.40;31.30;100309.31;4904242;28;98582;-66
2021/07/15 11:24:05;;;;;;;1.38;1.27;;;;;;;34.47;30.47;100311.13;4902257;28;99179;-70
2021/07/15 11:26:37;;;;;;;1.45;1.17;;;;;;;34.23;30.03;100318.88;4905183;28;98223;-70
2021/07/15 11:29:04;;;;;;;1.10;1.00;;;;;;;32.38;34.11;100304.16;4904277;28;97996;-70
2021/07/15 11:31:47;;;;;;;1.23;1.08;;;;;;;29.76;37.68;100296.41;4901881;28;98924;-70
2021/07/15 11:34:35;;;;;;;1.20;1.00;;;;;;;30.31;37.70;100287.47;4885179;28;114149;-65